Accueil
METAR-TAF:

METAR-TAF

Aéroports :

Aéroport de Jersey

Jersey,

latitude: 49-13N, longitude: 002-12W, altitude: 84 m

Observation

Le bulletin a été fait il y a 34 minutes, à 06:20 UTC
Vent 7 kt de est
Température 18°C
Humidité 49%
Pression 1034 hPa
Visibilité 10 km ou plus

METAR: EGJJ 270620Z AUTO 08007KT 9999 NCD 18/07 Q1034

Heure: 07:54 (06:54 UTC)

Prévision

Le bulletin a été fait il y a 1 heure et 57 minutes, à 04:57 UTC
Prévision valable du 27 à 06 UTC au 27 à 15 UTC
Vent 6 kt de est/nord-est
Visibilité 10 km ou plus
pas de nuages en-dessous de 1500 mètres et pas de cumulonimbus.

TAF: EGJJ 270457Z 2706/2715 06006KT CAVOK

Observations et prévisions météorologiques de plus de 4000 aéroports (messages METAR et TAF).

Les stations disponibles sont représentées par des disques jaunes et rouges sur la carte.

Passer la souris dessus pour voir le nom de la station.

Cliquer dessus pour voir les observations et prévisions météorologiques.

Pour changer de carte: cliquez sur les boutons verts avec une croix noire pour zoomer, sur le bouton vert avec un tiret pour effectuer un zoom arrière, ou sur les flèches vertes pour les cartes adjacentes.


METAR-TAF: